createdAt,value
2022-09-24T00:01:20.210Z,1.98
2022-09-24T00:06:23.523Z,1.90
2022-09-24T00:11:28.593Z,2.35
2022-09-24T00:16:34.638Z,2.75
2022-09-24T00:21:38.105Z,2.08
2022-09-24T00:26:49.661Z,1.77
2022-09-24T00:31:53.036Z,1.60
2022-09-24T00:36:55.131Z,2.35
2022-09-24T00:41:57.164Z,2.60
2022-09-24T00:46:59.266Z,2.90
2022-09-24T00:52:01.864Z,2.10
2022-09-24T00:57:04.140Z,1.73
2022-09-24T01:02:07.463Z,2.15
2022-09-24T01:07:10.009Z,2.13
2022-09-24T01:12:39.101Z,2.08
2022-09-24T01:17:54.129Z,2.33
2022-09-24T01:22:58.892Z,1.90
2022-09-24T01:28:07.176Z,2.20
2022-09-24T01:33:16.059Z,1.60
2022-09-24T01:38:22.308Z,1.87
2022-09-24T01:43:27.326Z,1.53
2022-09-24T01:48:30.260Z,1.73
2022-09-24T01:53:47.168Z,1.80
2022-09-24T01:59:01.596Z,1.20
2022-09-24T02:04:11.868Z,1.67
2022-09-24T02:09:35.431Z,1.67
2022-09-24T02:14:44.174Z,2.20
2022-09-24T02:19:48.284Z,1.57
2022-09-24T02:24:53.748Z,1.30
2022-09-24T02:29:57.337Z,1.70
2022-09-24T02:35:03.487Z,1.80
2022-09-24T02:40:08.335Z,1.63
2022-09-24T02:45:11.794Z,2.35
2022-09-24T02:50:13.873Z,2.00
2022-09-24T02:55:15.970Z,2.73
2022-09-24T03:00:20.891Z,1.87
2022-09-24T03:05:22.891Z,2.95
2022-09-24T03:10:25.140Z,1.77
2022-09-24T03:15:27.183Z,1.58
2022-09-24T03:20:29.797Z,2.40
2022-09-24T03:25:32.186Z,2.10
2022-09-24T03:30:52.984Z,2.05
2022-09-24T03:36:11.114Z,1.25
2022-09-24T03:41:13.541Z,1.50
2022-09-24T03:46:17.138Z,1.60
2022-09-24T03:51:19.852Z,1.65
2022-09-24T03:56:22.154Z,1.30
2022-09-24T04:01:24.257Z,1.62
2022-09-24T04:06:26.936Z,1.90
2022-09-24T04:11:28.996Z,1.85
2022-09-24T04:16:31.078Z,2.30
2022-09-24T04:21:33.140Z,2.10
2022-09-24T04:26:35.235Z,1.70
2022-09-24T04:31:39.513Z,1.20
2022-09-24T04:36:41.590Z,1.20
2022-09-24T04:41:43.903Z,1.27
2022-09-24T04:46:46.063Z,1.45
2022-09-24T04:51:48.084Z,1.95
2022-09-24T04:56:50.109Z,1.70
2022-09-24T05:01:54.316Z,1.80
2022-09-24T05:06:57.005Z,2.05
2022-09-24T05:11:59.605Z,2.28
2022-09-24T05:17:01.610Z,1.58
2022-09-24T05:22:03.690Z,1.57
2022-09-24T05:27:11.690Z,2.37
2022-09-24T05:32:15.949Z,1.70
2022-09-24T05:37:18.372Z,1.90
2022-09-24T05:42:20.585Z,3.15
2022-09-24T05:47:22.582Z,2.28
2022-09-24T05:52:24.695Z,2.03
2022-09-24T05:57:27.248Z,2.28
2022-09-24T06:02:29.325Z,1.87
2022-09-24T06:07:31.387Z,2.00
2022-09-24T06:12:36.658Z,2.47
2022-09-24T06:17:38.716Z,2.50
2022-09-24T06:22:40.815Z,2.03
2022-09-24T06:27:42.788Z,2.27
2022-09-24T06:32:44.809Z,1.83
2022-09-24T06:37:49.081Z,2.13
2022-09-24T06:42:52.530Z,2.33
2022-09-24T06:47:58.769Z,1.67
2022-09-24T06:53:01.352Z,2.40
2022-09-24T06:58:04.237Z,2.25
2022-09-24T07:08:09.049Z,5.47
2022-09-24T07:13:13.166Z,5.83
2022-09-24T07:18:15.347Z,6.20
2022-09-24T07:23:18.437Z,7.25
2022-09-24T07:28:20.501Z,4.85
2022-09-24T07:33:22.528Z,4.23
2022-09-24T07:38:25.548Z,4.93
2022-09-24T07:43:28.467Z,4.43
2022-09-24T07:53:32.486Z,1.95
2022-09-24T07:58:35.512Z,2.73
2022-09-24T08:03:37.547Z,2.75
2022-09-24T08:08:40.170Z,3.37
2022-09-24T08:13:42.191Z,3.47
2022-09-24T08:18:44.683Z,3.27
2022-09-24T08:23:46.923Z,3.05
2022-09-24T08:28:51.343Z,3.78
2022-09-24T08:33:53.391Z,3.72
2022-09-24T08:38:55.615Z,3.70
2022-09-24T08:44:00.482Z,3.03
2022-09-24T08:49:05.113Z,3.50
2022-09-24T08:54:14.368Z,3.25
2022-09-24T08:59:38.456Z,5.12
2022-09-24T09:04:49.696Z,4.97
2022-09-24T09:10:15.389Z,5.65
2022-09-24T09:15:28.931Z,5.03
2022-09-24T09:20:32.602Z,4.93
2022-09-24T09:25:36.823Z,5.37
2022-09-24T09:30:43.431Z,5.57
2022-09-24T09:35:53.192Z,4.32
2022-09-24T09:41:32.989Z,5.72
2022-09-24T09:46:42.274Z,5.47
2022-09-24T09:51:46.945Z,5.45
2022-09-24T09:56:50.064Z,5.70
2022-09-24T10:01:55.854Z,4.40
2022-09-24T10:07:11.143Z,5.05
2022-09-24T10:12:21.174Z,4.43
2022-09-24T10:17:28.865Z,4.65
2022-09-24T10:22:31.314Z,4.68
2022-09-24T10:27:37.051Z,5.18
2022-09-24T10:32:40.690Z,5.00
2022-09-24T10:37:54.717Z,5.32
2022-09-24T10:43:02.188Z,4.53
2022-09-24T10:48:16.765Z,6.10
2022-09-24T10:53:49.841Z,5.47
2022-09-24T10:59:21.090Z,4.75
2022-09-24T11:04:37.931Z,5.43
2022-09-24T11:10:05.284Z,5.25
2022-09-24T11:15:29.148Z,6.07
2022-09-24T11:20:36.669Z,5.87
2022-09-24T11:25:44.451Z,5.00
2022-09-24T11:31:04.228Z,6.18
2022-09-24T11:36:36.743Z,5.68
2022-09-24T11:42:03.445Z,5.32
2022-09-24T11:47:14.224Z,6.60
2022-09-24T11:52:34.360Z,5.60
2022-09-24T11:57:49.096Z,4.57
2022-09-24T12:03:04.086Z,5.05
2022-09-24T12:08:56.176Z,5.47
2022-09-24T12:14:24.089Z,4.97
2022-09-24T12:19:41.786Z,5.28
2022-09-24T12:24:54.626Z,4.12
2022-09-24T12:35:55.806Z,3.00
2022-09-24T12:41:23.257Z,3.65
2022-09-24T12:46:33.130Z,3.37
2022-09-24T12:51:38.177Z,3.17
2022-09-24T12:56:40.955Z,3.03
2022-09-24T13:01:43.146Z,3.45
2022-09-24T13:12:03.797Z,3.00
2022-09-24T13:17:07.213Z,3.00
2022-09-24T13:22:34.454Z,3.28
2022-09-24T13:27:39.795Z,2.53
2022-09-24T13:32:59.568Z,2.90
2022-09-24T13:38:09.272Z,3.33
2022-09-24T13:43:17.829Z,2.83
2022-09-24T13:48:45.134Z,3.05
2022-09-24T13:53:54.968Z,3.75
2022-09-24T13:59:12.074Z,4.00
2022-09-24T14:04:22.675Z,4.93
2022-09-24T14:09:33.956Z,3.00
2022-09-24T14:14:36.301Z,3.25
2022-09-24T14:19:38.481Z,4.30
2022-09-24T14:24:48.131Z,3.55
2022-09-24T14:29:56.873Z,3.97
2022-09-24T14:35:03.586Z,4.07
2022-09-24T14:40:24.945Z,3.42
2022-09-24T14:45:34.246Z,8.95
2022-09-24T14:50:40.754Z,4.95
2022-09-24T14:55:46.453Z,5.40
2022-09-24T15:00:51.106Z,4.12
2022-09-24T15:06:01.587Z,4.40
2022-09-24T15:11:06.578Z,4.03
2022-09-24T15:16:40.069Z,2.97
2022-09-24T15:21:42.514Z,3.10
2022-09-24T15:31:48.209Z,2.70
2022-09-24T15:36:56.654Z,3.35
2022-09-24T15:41:58.679Z,2.97
2022-09-24T15:47:00.778Z,3.17
2022-09-24T15:52:13.998Z,3.53
2022-09-24T15:57:16.591Z,3.40
2022-09-24T16:02:29.640Z,3.47
2022-09-24T16:07:31.672Z,3.72
2022-09-24T16:12:33.844Z,2.90
2022-09-24T16:17:36.013Z,4.15
2022-09-24T16:22:38.108Z,2.47
2022-09-24T16:27:40.785Z,3.35
2022-09-24T16:37:44.817Z,2.65
2022-09-24T16:42:46.820Z,3.17
2022-09-24T16:47:48.964Z,3.40
2022-09-24T16:52:54.647Z,3.72
2022-09-24T16:57:57.096Z,4.60
2022-09-24T17:02:59.569Z,3.33
2022-09-24T17:08:01.793Z,3.78
2022-09-24T17:13:03.968Z,2.47
2022-09-24T17:18:06.094Z,4.00
2022-09-24T17:23:08.186Z,3.03
2022-09-24T17:28:12.024Z,3.63
2022-09-24T17:33:41.349Z,3.62
2022-09-24T17:38:36.789Z,3.72
2022-09-24T17:43:40.174Z,4.82
2022-09-24T17:48:44.710Z,4.57
2022-09-24T17:53:47.293Z,3.85
2022-09-24T17:58:49.730Z,3.67
2022-09-24T18:03:57.341Z,3.05
2022-09-24T18:09:00.936Z,3.20
2022-09-24T18:14:03.155Z,4.18
2022-09-24T18:19:05.729Z,2.70
2022-09-24T18:24:10.151Z,3.03
2022-09-24T18:29:15.394Z,3.40
2022-09-24T18:34:17.477Z,4.03
2022-09-24T18:39:25.051Z,3.90
2022-09-24T18:44:27.768Z,3.33
2022-09-24T18:49:29.796Z,3.13
2022-09-24T18:54:31.781Z,3.27
2022-09-24T18:59:44.564Z,3.10
2022-09-24T19:04:46.575Z,2.90
2022-09-24T19:09:48.601Z,2.40
2022-09-24T19:14:54.029Z,3.03
2022-09-24T19:19:56.156Z,5.00
2022-09-24T19:24:58.319Z,3.97
2022-09-24T19:30:01.016Z,4.07
2022-09-24T19:35:04.051Z,6.65
2022-09-24T19:40:07.178Z,4.85
2022-09-24T19:45:10.136Z,5.50
2022-09-24T19:55:21.800Z,3.53
2022-09-24T20:00:26.965Z,4.00
2022-09-24T20:05:30.002Z,3.47
2022-09-24T20:10:36.142Z,3.10
2022-09-24T20:15:39.610Z,2.87
2022-09-24T20:20:41.778Z,2.92
2022-09-24T20:26:08.545Z,3.23
2022-09-24T20:31:12.572Z,3.22
2022-09-24T20:36:18.799Z,3.40
2022-09-24T20:41:25.117Z,3.40
2022-09-24T20:46:28.612Z,2.62
2022-09-24T20:51:33.575Z,3.90
2022-09-24T20:56:35.754Z,4.35
2022-09-24T21:01:39.092Z,3.13
2022-09-24T21:06:41.207Z,3.22
2022-09-24T21:11:43.909Z,4.30
2022-09-24T21:16:46.615Z,3.75
2022-09-24T21:21:48.692Z,3.05
2022-09-24T21:26:50.769Z,3.53
2022-09-24T21:31:52.857Z,3.50
2022-09-24T21:36:54.903Z,3.07
2022-09-24T21:41:59.138Z,2.63
2022-09-24T21:47:01.253Z,2.97
2022-09-24T21:52:05.821Z,2.80
2022-09-24T21:57:07.876Z,2.75
2022-09-24T22:02:11.028Z,2.43
2022-09-24T22:07:14.976Z,2.75
2022-09-24T22:12:17.183Z,2.92
2022-09-24T22:17:20.378Z,3.28
2022-09-24T22:22:22.401Z,4.35
2022-09-24T22:27:24.442Z,3.70
2022-09-24T22:32:26.551Z,3.37
2022-09-24T22:37:28.594Z,3.27
2022-09-24T22:42:30.695Z,2.93
2022-09-24T22:47:32.810Z,2.78
2022-09-24T22:52:35.843Z,2.85
2022-09-24T22:57:37.891Z,3.17
2022-09-24T23:02:39.984Z,4.20
2022-09-24T23:07:42.926Z,3.45
2022-09-24T23:12:44.959Z,3.37
2022-09-24T23:17:47.606Z,3.37
2022-09-24T23:22:49.727Z,2.95
2022-09-24T23:27:51.815Z,4.03
2022-09-24T23:32:54.417Z,3.77
2022-09-24T23:37:56.495Z,3.17
2022-09-24T23:42:59.285Z,2.97
2022-09-24T23:53:05.021Z,3.03
2022-09-24T23:58:07.147Z,3.33
